Time;durP1;ratioP1;P1;durP2;ratioP2;P2;SDS_P1;SDS_P2;PMS_P1;PMS_P2;Temp;Humidity;BMP_temperature;BMP_pressure;BME280_temperature;BME280_humidity;BME280_pressure;Samples;Min_cycle;Max_cycle;Signal;HPM_P1;HPM_P2
2022/09/05 00:01:18;;;;;;;1.67;1.25;;;22.40;91.20;;;;;;4141389;28;20141;-65
2022/09/05 00:03:33;;;;;;;2.22;1.50;;;22.40;90.50;;;;;;4146526;28;21539;-65
2022/09/05 00:05:48;;;;;;;4.40;1.30;;;22.40;91.80;;;;;;4145534;28;20555;-66
2022/09/05 00:08:00;;;;;;;2.38;1.60;;;22.30;90.90;;;;;;4142574;28;20049;-65
2022/09/05 00:10:19;;;;;;;3.07;1.60;;;22.40;90.70;;;;;;4145400;28;20030;-65
2022/09/05 00:12:21;;;;;;;2.78;1.60;;;22.30;90.50;;;;;;4141525;28;20080;-65
2022/09/05 00:14:35;;;;;;;2.05;1.42;;;22.30;90.60;;;;;;4146375;28;20026;-65
2022/09/05 00:16:44;;;;;;;2.35;1.70;;;22.20;90.70;;;;;;4141555;28;20515;-65
2022/09/05 00:18:52;;;;;;;2.67;1.80;;;22.20;91.10;;;;;;4141788;28;20481;-65
2022/09/05 00:21:17;;;;;;;2.60;1.58;;;22.20;91.60;;;;;;4145266;28;20324;-65
2022/09/05 00:23:40;;;;;;;4.05;1.83;;;22.20;91.30;;;;;;4145656;28;20413;-65
2022/09/05 00:25:41;;;;;;;;;;;22.20;90.70;;;;;;4144589;28;20062;-65
2022/09/05 00:28:02;;;;;;;2.28;1.55;;;22.20;90.80;;;;;;4145875;28;20298;-65
2022/09/05 00:30:09;;;;;;;3.08;1.45;;;22.10;91.10;;;;;;4142327;28;20026;-67
2022/09/05 00:32:10;;;;;;;2.78;1.52;;;22.10;91.10;;;;;;4144675;28;20388;-65
2022/09/05 00:34:10;;;;;;;1.38;1.23;;;22.10;92.20;;;;;;4145086;28;20034;-65
2022/09/05 00:36:35;;;;;;;1.70;1.42;;;22.10;91.80;;;;;;4143371;28;20041;-65
2022/09/05 00:38:40;;;;;;;4.90;2.17;;;22.10;91.60;;;;;;4145137;28;20089;-65
2022/09/05 00:40:48;;;;;;;1.88;1.52;;;22.10;92.00;;;;;;4145409;28;20471;-65
2022/09/05 00:43:28;;;;;;;3.70;2.05;;;22.10;91.10;;;;;;4145521;28;20453;-65
2022/09/05 00:45:43;;;;;;;2.60;1.63;;;22.00;91.10;;;;;;4094124;28;20350;-65
2022/09/05 00:48:16;;;;;;;1.40;1.30;;;22.00;91.80;;;;;;4145641;28;20030;-65
2022/09/05 00:50:28;;;;;;;2.03;1.63;;;22.00;91.90;;;;;;4110116;28;20061;-65
2022/09/05 00:52:41;;;;;;;4.50;1.70;;;22.00;91.60;;;;;;4143628;28;20449;-65
2022/09/05 00:54:51;;;;;;;;;;;21.90;92.20;;;;;;4145794;28;20485;-65
2022/09/05 00:57:12;;;;;;;1.80;1.50;;;21.90;91.50;;;;;;4144114;28;19999;-65
2022/09/05 00:59:52;;;;;;;1.83;1.55;;;21.90;91.60;;;;;;4144474;28;20073;-65
2022/09/05 01:02:10;;;;;;;4.63;1.83;;;21.80;91.00;;;;;;4143904;28;20026;-65
2022/09/05 01:04:23;;;;;;;1.80;1.35;;;21.80;91.40;;;;;;4142359;28;20382;-65
2022/09/05 01:07:05;;;;;;;3.40;1.80;;;21.80;91.50;;;;;;4140936;28;20101;-65
2022/09/05 01:09:32;;;;;;;2.15;1.73;;;21.70;91.10;;;;;;4143872;28;20038;-65
2022/09/05 01:11:57;;;;;;;2.55;1.52;;;21.80;91.00;;;;;;4143252;28;20038;-65
2022/09/05 01:14:31;;;;;;;2.03;1.60;;;21.70;90.90;;;;;;4143183;28;20033;-65
2022/09/05 01:17:01;;;;;;;1.70;1.50;;;21.70;90.90;;;;;;4143278;28;20934;-66
2022/09/05 01:19:26;;;;;;;3.35;1.63;;;21.70;90.90;;;;;;4142373;28;20058;-65
2022/09/05 01:21:58;;;;;;;2.20;1.65;;;21.60;90.90;;;;;;4141440;28;20034;-65
2022/09/05 01:24:07;;;;;;;1.85;1.50;;;21.70;91.80;;;;;;4145224;28;20041;-65
2022/09/05 01:26:39;;;;;;;2.83;1.88;;;21.60;91.80;;;;;;4142943;28;20045;-65
2022/09/05 01:28:57;;;;;;;2.35;1.73;;;21.60;92.20;;;;;;4077835;29;20424;-65
2022/09/05 01:31:19;;;;;;;2.10;1.70;;;21.60;91.60;;;;;;4145821;28;20485;-65
2022/09/05 01:33:40;;;;;;;2.60;1.80;;;21.50;91.20;;;;;;4143122;28;20057;-65
2022/09/05 01:35:53;;;;;;;2.78;1.60;;;21.50;91.90;;;;;;4139081;28;20029;-65
2022/09/05 01:38:06;;;;;;;2.15;1.70;;;21.50;91.50;;;;;;4145040;28;20045;-65
2022/09/05 01:40:50;;;;;;;2.25;1.70;;;21.50;91.40;;;;;;4141457;28;20046;-65
2022/09/05 01:43:25;;;;;;;2.17;1.60;;;21.50;91.60;;;;;;4115789;28;20530;-65
2022/09/05 01:45:44;;;;;;;1.63;1.52;;;21.50;91.40;;;;;;4114673;28;20039;-65
2022/09/05 01:47:56;;;;;;;2.40;1.80;;;21.40;91.40;;;;;;4127572;28;20117;-66
2022/09/05 01:50:30;;;;;;;3.03;1.73;;;21.40;91.30;;;;;;4143935;28;20084;-65
2022/09/05 01:52:37;;;;;;;1.95;1.67;;;21.40;91.20;;;;;;4142207;28;20026;-65
2022/09/05 01:55:22;;;;;;;2.10;1.60;;;21.40;91.50;;;;;;4144338;28;20034;-65
2022/09/05 01:57:47;;;;;;;1.80;1.60;;;21.40;91.50;;;;;;4144918;28;21015;-65
2022/09/05 02:00:29;;;;;;;4.75;1.90;;;21.30;91.60;;;;;;4140513;28;20508;-65
2022/09/05 02:02:52;;;;;;;2.15;1.73;;;21.30;91.60;;;;;;4141068;28;20112;-65
2022/09/05 02:05:23;;;;;;;5.03;1.80;;;21.30;91.80;;;;;;4141507;28;20038;-65
2022/09/05 02:07:51;;;;;;;2.28;1.77;;;21.20;91.60;;;;;;4143373;28;20041;-65
2022/09/05 02:10:24;;;;;;;3.13;1.80;;;21.20;91.50;;;;;;4144133;28;20069;-65
2022/09/05 02:12:44;;;;;;;2.25;1.77;;;21.10;91.60;;;;;;4140145;28;20042;-65
2022/09/05 02:15:00;;;;;;;3.00;1.85;;;21.10;92.00;;;;;;4143838;28;20374;-65
2022/09/05 02:17:25;;;;;;;3.25;1.50;;;21.10;92.10;;;;;;4144160;28;20161;-65
2022/09/05 02:19:30;;;;;;;1.95;1.67;;;21.10;91.80;;;;;;4143343;28;20477;-65
2022/09/05 02:21:36;;;;;;;1.98;1.70;;;21.00;92.00;;;;;;4141378;28;20038;-65
2022/09/05 02:24:00;;;;;;;3.30;1.90;;;21.00;92.10;;;;;;4143179;28;20037;-65
2022/09/05 02:26:09;;;;;;;3.65;1.92;;;21.00;92.50;;;;;;4141996;28;20033;-65
2022/09/05 02:28:12;;;;;;;5.28;2.28;;;21.00;92.30;;;;;;4143605;28;20454;-65
2022/09/05 02:30:22;;;;;;;7.25;1.92;;;21.00;92.10;;;;;;4140904;28;20066;-65
2022/09/05 02:32:29;;;;;;;2.42;2.00;;;21.00;92.20;;;;;;4141008;28;20436;-65
2022/09/05 02:34:38;;;;;;;3.30;2.13;;;20.90;92.30;;;;;;4143923;28;20040;-65
2022/09/05 02:36:51;;;;;;;3.78;2.15;;;20.90;92.30;;;;;;4141312;28;20038;-65
2022/09/05 02:38:58;;;;;;;3.35;1.95;;;20.90;92.70;;;;;;4142507;28;20045;-65
2022/09/05 02:41:31;;;;;;;3.17;1.80;;;20.90;92.60;;;;;;4142339;28;20042;-65
2022/09/05 02:43:47;;;;;;;2.80;1.92;;;20.90;92.10;;;;;;4143080;28;20052;-65
2022/09/05 02:46:12;;;;;;;5.03;2.40;;;20.90;92.50;;;;;;4141443;28;20054;-65
2022/09/05 02:48:24;;;;;;;2.40;1.75;;;20.90;92.60;;;;;;4142084;28;20034;-65
2022/09/05 02:50:36;;;;;;;2.65;2.10;;;20.90;92.40;;;;;;4144385;28;20519;-65
2022/09/05 02:52:42;;;;;;;2.92;2.15;;;20.80;92.60;;;;;;4143818;28;20358;-65
2022/09/05 02:54:46;;;;;;;2.58;1.92;;;20.80;92.40;;;;;;4139648;28;20073;-65
2022/09/05 02:56:56;;;;;;;3.88;2.08;;;20.80;92.50;;;;;;4140480;28;20057;-65
2022/09/05 02:59:31;;;;;;;2.65;2.30;;;20.80;93.10;;;;;;4142794;28;20052;-65
2022/09/05 03:01:54;;;;;;;2.88;2.28;;;20.80;92.30;;;;;;4086089;28;20035;-65
2022/09/05 03:04:10;;;;;;;3.15;2.33;;;20.70;92.60;;;;;;4143007;28;20050;-65
2022/09/05 03:06:30;;;;;;;6.45;2.47;;;20.70;93.20;;;;;;4141463;28;20034;-65
2022/09/05 03:08:58;;;;;;;3.50;2.20;;;20.70;92.80;;;;;;4142866;28;20493;-65
2022/09/05 03:11:19;;;;;;;3.90;2.25;;;20.60;92.90;;;;;;4142029;28;20520;-65
2022/09/05 03:13:54;;;;;;;2.22;2.03;;;20.60;92.70;;;;;;4143192;28;20034;-65
2022/09/05 03:16:21;;;;;;;2.53;2.25;;;20.60;93.00;;;;;;4093874;28;20053;-65
2022/09/05 03:18:59;;;;;;;6.13;2.50;;;20.60;93.20;;;;;;4141200;28;20069;-65
2022/09/05 03:21:25;;;;;;;2.40;2.20;;;20.60;93.10;;;;;;4142234;28;20533;-65
2022/09/05 03:24:02;;;;;;;3.70;2.00;;;20.60;93.40;;;;;;4143322;28;21038;-65
2022/09/05 03:26:26;;;;;;;2.90;2.22;;;20.60;93.00;;;;;;4144769;28;20030;-65
2022/09/05 03:28:45;;;;;;;3.17;1.90;;;20.60;92.90;;;;;;4144253;28;20038;-65
2022/09/05 03:31:13;;;;;;;4.30;2.25;;;20.50;92.60;;;;;;4145712;28;20045;-65
2022/09/05 03:33:27;;;;;;;3.35;2.17;;;20.50;93.00;;;;;;4145432;28;20045;-65
2022/09/05 03:36:08;;;;;;;2.95;2.22;;;20.50;93.10;;;;;;4145110;28;20034;-65
2022/09/05 03:38:27;;;;;;;4.35;2.05;;;20.50;92.90;;;;;;4144247;28;20464;-65
2022/09/05 03:40:35;;;;;;;2.20;1.95;;;20.40;92.80;;;;;;4145866;28;20501;-65
2022/09/05 03:42:53;;;;;;;4.45;2.40;;;20.40;93.10;;;;;;4146718;28;20036;-65
2022/09/05 03:44:56;;;;;;;3.10;2.40;;;20.30;93.30;;;;;;4145477;28;20516;-66
2022/09/05 03:47:22;;;;;;;5.40;2.30;;;20.20;93.50;;;;;;4146059;28;20188;-65
2022/09/05 03:50:04;;;;;;;4.13;2.10;;;20.20;93.90;;;;;;4143816;28;20026;-65
2022/09/05 03:52:24;;;;;;;3.78;2.60;;;20.10;94.50;;;;;;4144637;28;20474;-65
2022/09/05 03:54:45;;;;;;;3.25;2.35;;;20.10;94.40;;;;;;4144419;28;20029;-64
2022/09/05 03:57:34;;;;;;;4.35;2.72;;;20.10;94.40;;;;;;4145258;28;20046;-65
2022/09/05 04:00:08;;;;;;;3.00;2.17;;;20.10;94.50;;;;;;4137606;28;20036;-65
2022/09/05 04:02:11;;;;;;;4.75;2.75;;;20.10;94.80;;;;;;4142067;28;20022;-65
2022/09/05 04:04:21;;;;;;;;;;;20.20;94.80;;;;;;4143623;28;20476;-64
2022/09/05 04:06:41;;;;;;;3.00;2.40;;;20.20;95.00;;;;;;4145054;28;19943;-65
2022/09/05 04:08:49;;;;;;;7.50;2.65;;;20.20;95.30;;;;;;4143351;28;20033;-65
2022/09/05 04:11:28;;;;;;;3.38;2.50;;;20.20;95.40;;;;;;4142880;28;20096;-65
2022/09/05 04:13:32;;;;;;;3.75;2.20;;;20.20;95.60;;;;;;4076517;29;20071;-65
2022/09/05 04:16:05;;;;;;;2.35;2.05;;;20.20;95.40;;;;;;4077591;29;20032;-65
2022/09/05 04:18:18;;;;;;;;;;;20.20;95.30;;;;;;4093450;28;20121;-65
2022/09/05 04:20:41;;;;;;;3.50;2.05;;;20.20;95.40;;;;;;4142814;28;19909;-65
2022/09/05 04:23:14;;;;;;;2.60;2.20;;;20.20;94.70;;;;;;4145011;28;20038;-65
2022/09/05 04:25:29;;;;;;;3.97;2.53;;;20.20;95.00;;;;;;4142196;28;20045;-65
2022/09/05 04:27:35;;;;;;;3.03;2.35;;;20.20;94.70;;;;;;4143663;28;20397;-65
2022/09/05 04:29:53;;;;;;;4.13;2.42;;;20.20;95.10;;;;;;4145627;28;20527;-65
2022/09/05 04:32:07;;;;;;;2.90;2.28;;;20.10;94.80;;;;;;4145646;28;20497;-65
2022/09/05 04:34:20;;;;;;;3.83;2.45;;;20.10;95.00;;;;;;4142760;28;20040;-65
2022/09/05 04:36:34;;;;;;;2.38;2.08;;;20.10;95.10;;;;;;4145374;28;20045;-65
2022/09/05 04:38:39;;;;;;;2.35;2.10;;;20.10;94.70;;;;;;4144958;28;20085;-65
2022/09/05 04:40:48;;;;;;;4.05;2.60;;;20.10;94.40;;;;;;4144656;28;20122;-64
2022/09/05 04:42:50;;;;;;;3.55;2.17;;;20.10;94.60;;;;;;4146174;28;20049;-66
2022/09/05 04:45:01;;;;;;;3.72;2.40;;;20.10;94.60;;;;;;4145944;28;20041;-67
2022/09/05 04:47:19;;;;;;;3.75;2.65;;;20.10;94.50;;;;;;4145113;28;20030;-66
2022/09/05 04:49:30;;;;;;;3.17;2.40;;;20.10;95.10;;;;;;4141713;28;20038;-66
2022/09/05 04:51:58;;;;;;;2.80;2.08;;;20.10;95.10;;;;;;4141436;28;20469;-65
2022/09/05 04:54:17;;;;;;;3.60;2.47;;;20.00;95.00;;;;;;4144168;28;20041;-66
2022/09/05 04:56:25;;;;;;;3.53;2.22;;;20.10;95.60;;;;;;4143976;28;20030;-66
2022/09/05 04:58:37;;;;;;;3.58;2.38;;;20.10;94.80;;;;;;4145979;28;20138;-66
2022/09/05 05:01:01;;;;;;;3.45;2.35;;;20.00;94.60;;;;;;4142622;28;20413;-65
2022/09/05 05:03:09;;;;;;;2.30;1.90;;;20.00;94.50;;;;;;4143312;28;20389;-66
2022/09/05 05:05:24;;;;;;;2.20;1.92;;;20.00;94.40;;;;;;4137874;28;20030;-67
2022/09/05 05:07:39;;;;;;;2.75;2.15;;;20.00;94.30;;;;;;4142780;28;20061;-66
2022/09/05 05:09:47;;;;;;;6.47;2.20;;;20.00;94.70;;;;;;4142655;28;20033;-66
2022/09/05 05:11:58;;;;;;;3.53;2.45;;;20.00;94.70;;;;;;4143197;28;20046;-66
2022/09/05 05:14:25;;;;;;;4.00;2.63;;;20.00;95.10;;;;;;4145917;28;20037;-66
2022/09/05 05:16:31;;;;;;;6.95;2.40;;;20.00;95.20;;;;;;4139746;28;20068;-66
2022/09/05 05:18:45;;;;;;;3.65;2.50;;;20.00;95.50;;;;;;4139987;28;20042;-66
2022/09/05 05:21:04;;;;;;;3.78;2.60;;;20.00;95.30;;;;;;4139581;28;20065;-66
2022/09/05 05:23:15;;;;;;;4.75;2.70;;;19.90;95.40;;;;;;4138493;28;20064;-66
2022/09/05 05:25:15;;;;;;;3.63;2.38;;;19.90;95.20;;;;;;4138796;28;20164;-66
2022/09/05 05:28:00;;;;;;;4.32;2.58;;;19.80;95.40;;;;;;4142104;28;20076;-66
2022/09/05 05:30:05;;;;;;;2.80;2.50;;;19.80;95.80;;;;;;4085351;28;20044;-66
2022/09/05 05:32:07;;;;;;;4.05;2.70;;;19.80;95.80;;;;;;4127192;28;20049;-66
2022/09/05 05:34:20;;;;;;;5.07;2.80;;;19.80;96.30;;;;;;4133087;28;20033;-66
2022/09/05 05:36:26;;;;;;;3.72;2.90;;;19.70;97.30;;;;;;4138579;28;20045;-66
2022/09/05 05:38:37;;;;;;;4.13;2.60;;;19.70;96.60;;;;;;4141518;28;20072;-66
2022/09/05 05:40:48;;;;;;;4.35;2.67;;;19.70;96.80;;;;;;4141400;28;20068;-66
2022/09/05 05:42:48;;;;;;;3.28;2.40;;;19.60;97.20;;;;;;4139777;28;20045;-66
2022/09/05 05:44:57;;;;;;;11.98;3.28;;;19.60;96.90;;;;;;4141375;28;20113;-67
2022/09/05 05:47:01;;;;;;;3.08;2.15;;;19.70;96.70;;;;;;4138824;28;20034;-66
2022/09/05 05:49:13;;;;;;;5.43;2.80;;;19.70;96.70;;;;;;4139529;28;20981;-67
2022/09/05 05:51:33;;;;;;;3.17;2.70;;;19.60;99.00;;;;;;4139108;28;20140;-66
2022/09/05 05:53:49;;;;;;;5.03;2.88;;;19.70;99.80;;;;;;4139493;28;20038;-66
2022/09/05 05:56:11;;;;;;;5.72;2.95;;;19.70;99.90;;;;;;4138598;28;20054;-67
2022/09/05 05:58:31;;;;;;;4.10;3.28;;;19.70;99.90;;;;;;4137336;28;20033;-67
2022/09/05 06:00:49;;;;;;;3.58;3.03;;;19.80;99.90;;;;;;4141343;28;20037;-66
2022/09/05 06:03:11;;;;;;;5.55;3.65;;;19.90;99.90;;;;;;4139347;28;20473;-67
2022/09/05 06:05:40;;;;;;;5.50;3.58;;;19.90;99.90;;;;;;4138031;28;20042;-67
2022/09/05 06:07:59;;;;;;;4.45;3.20;;;20.00;99.90;;;;;;4134515;28;20030;-66
2022/09/05 06:10:37;;;;;;;5.25;3.63;;;20.00;99.90;;;;;;4140479;28;20096;-66
2022/09/05 06:13:10;;;;;;;6.55;4.55;;;20.10;99.90;;;;;;4139383;28;20037;-66
2022/09/05 06:15:46;;;;;;;6.97;5.28;;;20.20;99.90;;;;;;4138565;28;20030;-68
2022/09/05 06:18:06;;;;;;;6.13;4.47;;;20.20;99.90;;;;;;4073856;29;20068;-67
2022/09/05 06:20:30;;;;;;;7.38;5.57;;;20.30;99.90;;;;;;4138860;28;20511;-67
2022/09/05 06:22:45;;;;;;;6.65;5.35;;;20.30;99.90;;;;;;4140183;28;20038;-66
2022/09/05 06:25:14;;;;;;;7.25;4.05;;;20.40;99.90;;;;;;4138760;28;20038;-67
2022/09/05 06:27:21;;;;;;;5.13;3.35;;;20.50;99.90;;;;;;4136797;28;20042;-67
2022/09/05 06:29:30;;;;;;;4.72;3.30;;;20.60;99.90;;;;;;4141772;28;20030;-67
2022/09/05 06:32:28;;;;;;;5.13;2.45;;;20.70;99.90;;;;;;4138842;28;20042;-67
2022/09/05 06:35:02;;;;;;;3.50;2.28;;;21.00;99.90;;;;;;4139316;28;20042;-66
2022/09/05 06:37:18;;;;;;;5.78;2.35;;;21.40;99.90;;;;;;4139709;28;20092;-67
2022/09/05 06:39:57;;;;;;;4.30;2.67;;;21.80;99.90;;;;;;4124720;28;20038;-67
2022/09/05 06:42:33;;;;;;;4.53;2.50;;;22.20;99.90;;;;;;4121922;28;20092;-67
2022/09/05 06:44:59;;;;;;;5.15;2.88;;;22.70;99.90;;;;;;4140252;28;20713;-67
2022/09/05 06:47:05;;;;;;;2.90;1.95;;;23.10;99.90;;;;;;4138049;28;20041;-67
2022/09/05 06:49:16;;;;;;;5.18;2.03;;;23.60;99.00;;;;;;4138107;28;20037;-68
2022/09/05 06:51:26;;;;;;;4.80;2.05;;;23.90;97.20;;;;;;4131337;28;20563;-68
2022/09/05 06:53:52;;;;;;;2.22;1.48;;;24.30;97.10;;;;;;4140582;28;20038;-67
2022/09/05 06:56:04;;;;;;;2.40;1.63;;;24.70;95.80;;;;;;4139052;28;20050;-67
2022/09/05 06:58:08;;;;;;;3.40;1.85;;;25.00;94.40;;;;;;4135601;28;20042;-67
2022/09/05 07:00:32;;;;;;;2.88;1.98;;;25.30;93.60;;;;;;4138640;28;20041;-67
2022/09/05 07:03:05;;;;;;;4.72;1.75;;;25.60;93.50;;;;;;4140472;28;20045;-68
2022/09/05 07:05:20;;;;;;;2.90;1.85;;;25.90;92.60;;;;;;4129607;28;20075;-69
2022/09/05 07:07:28;;;;;;;3.42;2.00;;;26.20;91.90;;;;;;4138648;28;20431;-68
2022/09/05 07:10:18;;;;;;;2.83;1.98;;;26.50;91.20;;;;;;4138869;28;21288;-67
2022/09/05 07:12:29;;;;;;;2.85;1.88;;;26.60;90.30;;;;;;4088195;29;20040;-67
2022/09/05 07:15:02;;;;;;;2.45;1.70;;;26.70;90.40;;;;;;4089130;29;20067;-67
2022/09/05 07:17:15;;;;;;;2.95;1.70;;;26.80;90.10;;;;;;4098828;28;20143;-67
2022/09/05 07:19:31;;;;;;;2.05;1.75;;;27.10;88.70;;;;;;4136385;28;20032;-68
2022/09/05 07:22:06;;;;;;;3.28;1.88;;;27.20;90.00;;;;;;4137660;28;20073;-68
2022/09/05 07:24:16;;;;;;;2.00;1.58;;;27.40;87.90;;;;;;4139972;28;20033;-68
2022/09/05 07:26:19;;;;;;;2.00;1.50;;;27.60;87.00;;;;;;4139546;28;20176;-68
2022/09/05 07:28:20;;;;;;;2.28;1.58;;;27.70;86.20;;;;;;4139498;28;20157;-68
2022/09/05 07:30:20;;;;;;;2.50;1.77;;;27.80;85.60;;;;;;4135521;28;20117;-68
2022/09/05 07:32:23;;;;;;;2.38;1.60;;;28.00;83.80;;;;;;4140354;28;20054;-66
2022/09/05 07:34:30;;;;;;;6.25;1.90;;;28.10;84.20;;;;;;4140238;28;20041;-66
2022/09/05 07:36:38;;;;;;;2.67;1.60;;;28.10;82.90;;;;;;4138784;28;20432;-66
2022/09/05 07:38:39;;;;;;;1.85;1.30;;;28.30;83.10;;;;;;4138705;28;20033;-67
2022/09/05 07:40:58;;;;;;;3.28;1.63;;;28.40;81.10;;;;;;4139736;28;20034;-68
2022/09/05 07:43:14;;;;;;;3.13;1.70;;;28.40;82.10;;;;;;4138943;28;22384;-66
2022/09/05 07:45:22;;;;;;;2.03;1.60;;;28.40;80.90;;;;;;4133275;28;20030;-66
2022/09/05 07:47:27;;;;;;;2.38;1.38;;;28.50;81.30;;;;;;4139879;28;20105;-66
2022/09/05 07:49:28;;;;;;;1.85;1.60;;;28.60;80.10;;;;;;4138963;28;20174;-66
2022/09/05 07:51:36;;;;;;;3.75;1.83;;;28.60;80.40;;;;;;4138139;28;20045;-66
2022/09/05 07:53:41;;;;;;;2.53;1.60;;;28.80;79.90;;;;;;4140177;28;20045;-66
2022/09/05 07:55:42;;;;;;;2.00;1.33;;;28.70;79.30;;;;;;4138337;28;20034;-66
2022/09/05 07:57:44;;;;;;;2.25;1.60;;;28.70;78.60;;;;;;4139939;28;20489;-67
2022/09/05 07:59:49;;;;;;;3.75;1.92;;;28.70;79.90;;;;;;4140151;28;20037;-67
2022/09/05 08:01:52;;;;;;;3.75;1.70;;;28.80;78.40;;;;;;4135280;28;20061;-66
2022/09/05 08:03:54;;;;;;;2.25;1.63;;;28.80;78.10;;;;;;4136769;28;20060;-67
2022/09/05 08:06:00;;;;;;;2.85;1.48;;;28.70;77.80;;;;;;4140361;28;20034;-66
2022/09/05 08:08:04;;;;;;;3.17;1.63;;;28.80;77.10;;;;;;4140832;28;20100;-67
2022/09/05 08:10:11;;;;;;;2.47;1.70;;;28.80;76.90;;;;;;4142356;28;20029;-68
2022/09/05 08:12:36;;;;;;;2.35;1.60;;;28.80;77.10;;;;;;4143948;28;20056;-66
2022/09/05 08:14:43;;;;;;;2.60;1.75;;;28.90;78.50;;;;;;4143669;28;20038;-67
2022/09/05 08:16:44;;;;;;;1.95;1.42;;;28.90;77.20;;;;;;4142824;28;20038;-67
2022/09/05 08:19:00;;;;;;;2.88;1.80;;;29.00;77.30;;;;;;4144347;28;20428;-67
2022/09/05 08:21:14;;;;;;;2.50;1.50;;;29.00;77.10;;;;;;4142315;28;20052;-66
2022/09/05 08:23:35;;;;;;;2.78;1.63;;;29.00;76.30;;;;;;4140882;28;20038;-67
2022/09/05 08:25:42;;;;;;;3.10;1.70;;;29.10;75.60;;;;;;4143305;28;20046;-66
2022/09/05 08:28:05;;;;;;;2.75;1.80;;;29.10;76.60;;;;;;4141630;28;20057;-67
2022/09/05 08:30:09;;;;;;;1.75;1.38;;;29.00;75.50;;;;;;4143528;28;20041;-68
2022/09/05 08:32:20;;;;;;;2.72;1.60;;;29.10;75.70;;;;;;4143111;28;20061;-66
2022/09/05 08:34:36;;;;;;;3.47;1.65;;;29.10;76.30;;;;;;4142615;28;20046;-66
2022/09/05 08:36:48;;;;;;;2.95;1.75;;;29.10;75.90;;;;;;4143502;28;20045;-66
2022/09/05 08:38:49;;;;;;;3.17;1.70;;;29.10;75.20;;;;;;4143229;28;20053;-66
2022/09/05 08:40:57;;;;;;;3.07;1.50;;;29.10;74.90;;;;;;4141433;28;20431;-67
2022/09/05 08:43:03;;;;;;;1.75;1.40;;;29.10;75.60;;;;;;4144184;28;20042;-67
2022/09/05 08:45:23;;;;;;;2.28;1.60;;;29.20;76.10;;;;;;4144148;28;20030;-66
2022/09/05 08:48:02;;;;;;;4.40;1.83;;;29.20;74.80;;;;;;4141508;28;20125;-66
2022/09/05 08:50:18;;;;;;;1.45;1.33;;;29.30;73.90;;;;;;4141608;28;20597;-67
2022/09/05 08:52:31;;;;;;;2.42;1.30;;;29.20;73.20;;;;;;4129535;28;20034;-66
2022/09/05 08:54:44;;;;;;;2.25;1.83;;;29.30;73.90;;;;;;4139131;28;20038;-66
2022/09/05 08:56:50;;;;;;;3.55;1.38;;;29.30;73.60;;;;;;4141305;28;20037;-66
2022/09/05 08:59:06;;;;;;;3.00;1.60;;;29.40;75.20;;;;;;4142907;28;20113;-67
2022/09/05 09:01:29;;;;;;;2.13;1.40;;;29.40;74.30;;;;;;4142799;28;20639;-66
2022/09/05 09:03:48;;;;;;;1.92;1.45;;;29.50;71.60;;;;;;4142907;28;20034;-67
2022/09/05 09:05:54;;;;;;;2.80;1.67;;;29.50;71.60;;;;;;4138777;28;20038;-66
2022/09/05 09:08:18;;;;;;;7.25;1.40;;;29.60;71.60;;;;;;4142221;28;20081;-66
2022/09/05 09:10:43;;;;;;;2.67;1.58;;;29.60;71.70;;;;;;4135308;28;20034;-66
2022/09/05 09:13:07;;;;;;;3.00;1.73;;;29.70;70.80;;;;;;4142575;28;20040;-67
2022/09/05 09:15:32;;;;;;;1.92;1.17;;;29.70;70.80;;;;;;4134571;28;20122;-68
2022/09/05 09:17:48;;;;;;;3.33;1.50;;;29.80;71.70;;;;;;4143022;28;20600;-66
2022/09/05 09:20:12;;;;;;;3.00;1.58;;;29.80;71.60;;;;;;4143147;28;20033;-67
2022/09/05 09:22:40;;;;;;;2.20;1.40;;;29.70;69.90;;;;;;4142229;28;20038;-67
2022/09/05 09:25:08;;;;;;;3.75;1.60;;;29.80;70.10;;;;;;4143363;28;20050;-66
2022/09/05 09:27:28;;;;;;;2.70;1.45;;;29.90;72.00;;;;;;4137253;28;20477;-66
2022/09/05 09:29:35;;;;;;;2.50;1.38;;;29.90;69.90;;;;;;4141857;28;20465;-67
2022/09/05 09:31:54;;;;;;;1.90;1.40;;;29.90;69.30;;;;;;4141591;28;20462;-67
2022/09/05 09:34:03;;;;;;;4.03;1.58;;;30.00;71.30;;;;;;4143314;28;20637;-66
2022/09/05 09:36:35;;;;;;;1.90;1.33;;;30.10;71.20;;;;;;4142705;28;20524;-66
2022/09/05 09:38:56;;;;;;;2.35;1.55;;;30.10;70.10;;;;;;4142184;28;20061;-66
2022/09/05 09:41:32;;;;;;;2.05;1.38;;;30.10;69.30;;;;;;4101168;28;20041;-66
2022/09/05 09:44:05;;;;;;;4.20;1.60;;;30.10;67.90;;;;;;4142700;28;20026;-66
2022/09/05 09:46:17;;;;;;;2.55;1.67;;;30.20;67.10;;;;;;4140564;28;20033;-66
2022/09/05 09:48:37;;;;;;;;;;;30.20;67.90;;;;;;4138899;28;20034;-66
2022/09/05 09:51:00;;;;;;;2.33;1.60;;;30.20;68.00;;;;;;4141422;28;19965;-66
2022/09/05 09:53:19;;;;;;;4.82;1.80;;;30.30;67.90;;;;;;4142324;28;20064;-66
2022/09/05 09:55:39;;;;;;;4.07;1.67;;;30.30;68.30;;;;;;4139522;28;20033;-67
2022/09/05 09:58:06;;;;;;;3.10;1.58;;;30.30;68.20;;;;;;4137882;28;20026;-67
2022/09/05 10:00:16;;;;;;;3.80;1.63;;;30.40;66.00;;;;;;4141946;28;20045;-66
2022/09/05 10:02:27;;;;;;;2.30;1.73;;;30.40;65.80;;;;;;4141437;28;20054;-67
2022/09/05 10:04:59;;;;;;;2.30;1.25;;;30.40;66.20;;;;;;4140190;28;20092;-66
2022/09/05 10:07:15;;;;;;;1.95;1.38;;;30.50;66.70;;;;;;4132744;28;20034;-67
2022/09/05 10:09:29;;;;;;;1.45;1.30;;;30.50;65.80;;;;;;4138602;28;20019;-66
2022/09/05 10:11:58;;;;;;;3.97;1.92;;;30.50;63.70;;;;;;4143236;28;20059;-66
2022/09/05 10:14:11;;;;;;;2.03;1.50;;;30.50;61.70;;;;;;4142092;28;20034;-66
2022/09/05 10:16:53;;;;;;;2.85;1.33;;;30.60;62.70;;;;;;4131843;28;20501;-68
2022/09/05 10:19:28;;;;;;;2.08;1.40;;;30.60;62.40;;;;;;4119538;28;20113;-66
2022/09/05 10:21:28;;;;;;;2.40;1.52;;;30.60;61.10;;;;;;4140517;28;20520;-66
2022/09/05 10:23:32;;;;;;;2.25;1.45;;;30.60;62.70;;;;;;4141749;28;20033;-65
2022/09/05 10:26:04;;;;;;;2.08;1.38;;;30.60;63.50;;;;;;4141865;28;20053;-64
2022/09/05 10:28:04;;;;;;;1.77;1.45;;;30.60;61.60;;;;;;4140959;28;20037;-65
2022/09/05 10:30:10;;;;;;;3.80;1.80;;;30.60;60.80;;;;;;4140394;28;20037;-65
2022/09/05 10:32:37;;;;;;;1.33;1.17;;;30.60;61.00;;;;;;4141659;28;20038;-66
2022/09/05 10:34:52;;;;;;;3.15;1.63;;;30.50;60.00;;;;;;4141452;28;20642;-65
2022/09/05 10:37:01;;;;;;;2.53;1.40;;;30.50;58.30;;;;;;4139662;28;20474;-64
2022/09/05 10:39:19;;;;;;;2.78;1.30;;;30.40;59.00;;;;;;4142007;28;20026;-65
2022/09/05 10:41:27;;;;;;;1.65;1.20;;;30.40;58.70;;;;;;4139064;28;20125;-66
2022/09/05 10:43:30;;;;;;;2.97;1.40;;;30.40;58.60;;;;;;4141998;28;20430;-66
2022/09/05 10:45:55;;;;;;;1.90;1.38;;;30.40;59.60;;;;;;4141345;28;20041;-66
2022/09/05 10:48:07;;;;;;;1.42;1.30;;;30.40;59.10;;;;;;4140668;28;20042;-66
2022/09/05 10:50:28;;;;;;;1.42;1.00;;;30.40;57.70;;;;;;4140450;28;20092;-66
2022/09/05 10:52:56;;;;;;;2.75;1.00;;;30.50;59.00;;;;;;4140447;28;20037;-66
2022/09/05 10:55:27;;;;;;;1.45;1.15;;;30.60;58.10;;;;;;4139762;28;20065;-66
2022/09/05 10:57:40;;;;;;;3.83;1.65;;;30.60;58.50;;;;;;4137621;28;20415;-66
2022/09/05 11:00:08;;;;;;;1.60;1.33;;;30.60;58.50;;;;;;4138451;28;20524;-66
2022/09/05 11:02:30;;;;;;;1.40;1.05;;;30.60;58.00;;;;;;4138093;28;20033;-66
2022/09/05 11:04:44;;;;;;;1.15;1.05;;;30.50;56.80;;;;;;4139959;28;20497;-66
2022/09/05 11:06:45;;;;;;;1.58;0.90;;;30.50;56.80;;;;;;4139953;28;20044;-66
2022/09/05 11:09:03;;;;;;;1.10;1.00;;;30.60;55.80;;;;;;4140572;28;20026;-67
2022/09/05 11:11:20;;;;;;;2.55;1.35;;;30.60;56.20;;;;;;4138255;28;20636;-66
2022/09/05 11:13:40;;;;;;;2.00;1.00;;;30.60;55.70;;;;;;4138435;28;20058;-66
2022/09/05 11:16:02;;;;;;;1.85;1.30;;;30.60;57.50;;;;;;4137628;28;20041;-66
2022/09/05 11:18:13;;;;;;;2.78;1.15;;;30.50;57.10;;;;;;4139681;28;20026;-66
2022/09/05 11:20:16;;;;;;;1.30;1.20;;;30.50;56.30;;;;;;4139895;28;20046;-66
2022/09/05 11:22:19;;;;;;;1.00;0.90;;;30.50;56.80;;;;;;4140178;28;20030;-66
2022/09/05 11:24:45;;;;;;;2.05;1.40;;;30.50;57.00;;;;;;4139818;28;20038;-66
2022/09/05 11:26:51;;;;;;;1.85;1.38;;;30.50;56.50;;;;;;4138854;28;20022;-67
2022/09/05 11:29:04;;;;;;;2.63;1.30;;;30.50;56.30;;;;;;4139071;28;20042;-66
2022/09/05 11:31:13;;;;;;;1.67;1.13;;;30.50;56.10;;;;;;4139952;28;20386;-66
2022/09/05 11:33:16;;;;;;;1.33;1.15;;;30.50;56.50;;;;;;4140002;28;20036;-66
2022/09/05 11:35:39;;;;;;;1.67;1.10;;;30.60;57.20;;;;;;4139199;28;20370;-66
2022/09/05 11:37:58;;;;;;;;;;;30.60;55.60;;;;;;4140715;28;20033;-66
2022/09/05 11:40:18;;;;;;;1.45;1.00;;;30.60;57.10;;;;;;4134792;28;21048;-66
2022/09/05 11:42:36;;;;;;;2.10;1.13;;;30.70;56.20;;;;;;4140115;28;20118;-66
2022/09/05 11:45:01;;;;;;;1.13;0.90;;;30.60;55.00;;;;;;4141081;28;20080;-66
2022/09/05 11:47:43;;;;;;;1.42;1.00;;;30.70;56.00;;;;;;4141264;28;20561;-66
2022/09/05 11:50:04;;;;;;;2.97;0.98;;;30.70;56.10;;;;;;4142584;28;20034;-66
2022/09/05 11:52:56;;;;;;;2.13;1.30;;;30.70;54.40;;;;;;4142888;28;20042;-66
2022/09/05 11:55:24;;;;;;;1.45;1.00;;;30.80;54.80;;;;;;4117334;28;20677;-66
2022/09/05 11:57:37;;;;;;;2.13;1.13;;;30.80;54.80;;;;;;4141449;28;20141;-66